Terminal Aerodrome Forecast
Issued by NWS

Current Version | Previous Version | Text Only | Print | Product List | Glossary On
Versions: 1 2 3 4 5 6 7 8 9 10 11 12 13 14 15 16 17 18 19 20
000
FTUS41 KPHI 271128
TAFPNE
TAF
KPNE 271128Z 2712/2812 28006KT P6SM SCT045
     FM271500 25006KT P6SM BKN050
     FM272100 18004KT P6SM BKN050
     FM280200 15004KT P6SM SCT250
     FM281100 09004KT P6SM SCT250=

USA.gov is the U.S. government's official web portal to all federal, state and local government web resources and services.